Washington, District of Columbia
Traffic Map
Current Weather Conditions
Washington, District of Columbia
Overcast Drizzle
Overcast
40°
Feels Like: 34°
Wind Chill: 34° Ceiling: 700
Heat Index: 40° Visibility: 1.7mi
Dew Point: 36° Wind: 8mph
Humidity: 86% Direction: 330° (NNW)
Pressure: 30.09in Gusts: 0mph
Raw Report DataKDCA 230452Z 33007KT 1 3/4SM -DZ BR OVC007 04/02 A3009 RMK AO2 RAE21DZB21 SLP187 P0000 T00440022 400830006
Traffic Incident Summary
Active as of:
Severity:
Category:
InformationThere was an issue retrieving the traffic information for this location. Please try a different location or try again shortly.
Advertisements
Track Severe Weather on mobile